Time;durP1;ratioP1;P1;durP2;ratioP2;P2;SDS_P1;SDS_P2;PMS_P1;PMS_P2;Temp;Humidity;BMP_temperature;BMP_pressure;BME280_temperature;BME280_humidity;BME280_pressure;Samples;Min_cycle;Max_cycle;Signal;HPM_P1;HPM_P2
2022/06/08 00:00:37;;;;;;;1.70;1.60;;;;;;;12.36;79.95;100651.88;5077613;28;20103;-81
2022/06/08 00:03:10;;;;;;;6.50;2.10;;;;;;;12.30;79.93;100653.72;5060888;28;20111;-81
2022/06/08 00:05:36;;;;;;;2.55;1.98;;;;;;;12.29;80.25;100646.75;5077347;28;20058;-81
2022/06/08 00:08:01;;;;;;;1.70;1.60;;;;;;;12.26;80.24;100646.84;5060456;28;20028;-81
2022/06/08 00:10:27;;;;;;;2.80;1.90;;;;;;;12.25;80.85;100650.34;5060819;28;20023;-81
2022/06/08 00:12:53;;;;;;;1.75;1.65;;;;;;;12.24;80.51;100647.78;5060686;28;20111;-82
2022/06/08 00:15:18;;;;;;;1.70;1.60;;;;;;;12.19;80.53;100645.28;5077115;28;20024;-81
2022/06/08 00:17:43;;;;;;;3.13;1.80;;;;;;;12.16;80.65;100640.09;5060338;28;20020;-81
2022/06/08 00:20:10;;;;;;;1.83;1.73;;;;;;;12.12;80.78;100634.09;5060552;28;20031;-81
2022/06/08 00:22:36;;;;;;;2.45;1.73;;;;;;;12.09;80.24;100634.16;5077321;28;20503;-81
2022/06/08 00:25:02;;;;;;;2.00;1.77;;;;;;;12.06;80.27;100630.75;5077244;28;20016;-81
2022/06/08 00:27:27;;;;;;;2.85;1.88;;;;;;;12.05;80.48;100631.63;5093740;28;20020;-81
2022/06/08 00:29:53;;;;;;;4.38;1.83;;;;;;;12.00;80.48;100630.00;5060425;28;20035;-81
2022/06/08 00:32:19;;;;;;;2.10;1.88;;;;;;;11.97;81.13;100632.69;5076880;28;20024;-81
2022/06/08 00:34:44;;;;;;;2.03;1.88;;;;;;;11.95;81.38;100634.47;5060179;28;20081;-81
2022/06/08 00:37:10;;;;;;;2.22;2.03;;;;;;;11.95;81.18;100631.84;5059956;28;20023;-81
2022/06/08 00:39:35;;;;;;;2.13;1.92;;;;;;;11.92;81.22;100629.28;5076861;28;20409;-81
2022/06/08 00:42:04;;;;;;;2.10;1.83;;;;;;;11.91;81.45;100617.06;5060226;28;20393;-81
2022/06/08 00:44:48;;;;;;;3.28;1.80;;;;;;;11.87;80.87;100628.50;5093653;28;20059;-81
2022/06/08 00:47:21;;;;;;;1.70;1.60;;;;;;;11.83;81.13;100626.84;5059882;28;20067;-81
2022/06/08 00:50:01;;;;;;;3.47;1.50;;;;;;;11.80;80.38;100627.78;5060046;28;20508;-81
2022/06/08 00:52:27;;;;;;;2.42;1.83;;;;;;;11.76;81.06;100626.13;5060192;28;20028;-81
2022/06/08 00:55:05;;;;;;;1.90;1.80;;;;;;;11.74;80.98;100616.59;5076532;28;20020;-81
2022/06/08 00:57:40;;;;;;;2.55;1.73;;;;;;;11.72;80.97;100618.41;5093303;28;20496;-81
2022/06/08 01:00:11;;;;;;;2.33;1.85;;;;;;;11.69;81.14;100619.31;5076555;28;20625;-81
2022/06/08 01:02:36;;;;;;;2.75;1.90;;;;;;;11.66;80.50;100617.63;5094673;28;20020;-81
2022/06/08 01:05:29;;;;;;;4.05;2.10;;;;;;;11.65;82.02;100622.91;5058812;28;20024;-82
2022/06/08 01:08:02;;;;;;;2.13;1.70;;;;;;;11.62;81.13;100623.81;5059803;28;20499;-81
2022/06/08 01:10:40;;;;;;;1.73;1.63;;;;;;;11.60;81.49;100623.00;5076376;28;20366;-81
2022/06/08 01:13:06;;;;;;;1.65;1.55;;;;;;;11.58;81.42;100622.16;5059611;28;20388;-81
2022/06/08 01:15:33;;;;;;;2.45;2.00;;;;;;;11.57;79.95;100620.44;5059532;28;20020;-81
2022/06/08 01:17:59;;;;;;;3.13;1.80;;;;;;;11.55;80.17;100617.00;5059477;28;20016;-81
2022/06/08 01:20:24;;;;;;;1.95;1.75;;;;;;;11.53;80.37;100621.41;5059475;28;20385;-81
2022/06/08 01:22:50;;;;;;;3.42;2.15;;;;;;;11.51;80.04;100620.59;5076041;28;20016;-81
2022/06/08 01:25:16;;;;;;;2.17;2.00;;;;;;;11.49;80.30;100614.50;5059364;28;20035;-81
2022/06/08 01:27:48;;;;;;;2.15;1.95;;;;;;;11.47;80.45;100617.16;5059099;28;20051;-81
2022/06/08 01:30:17;;;;;;;2.40;2.15;;;;;;;11.48;80.73;100618.03;5094014;28;20473;-81
2022/06/08 01:32:58;;;;;;;3.20;2.35;;;;;;;11.46;81.36;100607.59;5075783;28;20020;-81
2022/06/08 01:35:30;;;;;;;2.28;2.13;;;;;;;11.46;81.61;100607.59;5075740;28;20115;-80
2022/06/08 01:38:16;;;;;;;2.08;1.92;;;;;;;11.46;81.48;100614.59;5075599;28;20028;-81
2022/06/08 01:40:45;;;;;;;2.90;2.20;;;;;;;11.45;81.63;100612.84;5075764;28;20016;-81
2022/06/08 01:43:32;;;;;;;2.60;2.40;;;;;;;11.45;81.82;100610.25;5093726;28;20546;-81
2022/06/08 01:46:00;;;;;;;2.38;2.22;;;;;;;11.43;80.49;100604.19;5093924;28;20485;-81
2022/06/08 01:48:43;;;;;;;3.78;2.17;;;;;;;11.42;81.61;100602.47;5075098;28;20085;-82
2022/06/08 01:51:19;;;;;;;2.78;2.13;;;;;;;11.39;81.65;100590.31;5075481;28;20481;-81
2022/06/08 01:54:16;;;;;;;2.28;2.05;;;;;;;11.38;81.49;100585.97;5075439;28;20080;-81
2022/06/08 01:57:00;;;;;;;2.42;2.22;;;;;;;11.37;80.97;100588.63;5075209;28;20069;-81
2022/06/08 01:59:28;;;;;;;2.70;2.50;;;;;;;11.35;80.96;100582.56;5058995;28;20016;-81
2022/06/08 02:02:12;;;;;;;3.10;2.22;;;;;;;11.32;81.42;100581.72;5058576;28;20485;-81
2022/06/08 02:04:50;;;;;;;2.45;2.28;;;;;;;11.32;81.21;100578.28;5093379;28;20115;-81
2022/06/08 02:07:16;;;;;;;2.83;1.98;;;;;;;11.30;81.55;100580.03;5075040;28;20115;-81
2022/06/08 02:09:55;;;;;;;2.20;2.10;;;;;;;11.27;82.30;100573.13;5075051;28;20119;-81
2022/06/08 02:12:20;;;;;;;2.13;2.03;;;;;;;11.27;82.05;100564.44;5058345;28;20396;-81
2022/06/08 02:14:50;;;;;;;2.13;2.03;;;;;;;11.25;80.60;100567.06;5058246;28;20034;-81
2022/06/08 02:17:38;;;;;;;2.70;2.40;;;;;;;11.23;80.73;100563.63;5058082;28;20028;-81
2022/06/08 02:20:26;;;;;;;3.03;2.13;;;;;;;11.20;81.38;100568.91;5058340;28;20145;-81
2022/06/08 02:22:56;;;;;;;2.83;2.60;;;;;;;11.17;82.05;100563.75;5058348;28;20024;-81
2022/06/08 02:25:29;;;;;;;2.15;1.98;;;;;;;11.16;82.00;100570.72;5074790;28;20030;-81
2022/06/08 02:28:10;;;;;;;2.17;1.98;;;;;;;11.16;81.24;100562.03;5074595;28;20024;-81
2022/06/08 02:30:50;;;;;;;3.53;2.20;;;;;;;11.14;81.35;100563.84;5073449;28;20075;-81
2022/06/08 02:36:30;;;;;;;2.70;1.87;;;;;;;11.10;81.79;100562.19;5077542;28;20047;-81
2022/06/08 02:39:25;;;;;;;2.15;1.95;;;;;;;11.08;82.46;100556.09;5091350;28;20324;-81
2022/06/08 02:41:52;;;;;;;2.10;2.00;;;;;;;11.07;81.95;100557.00;5074394;28;20012;-81
2022/06/08 02:44:24;;;;;;;2.40;2.20;;;;;;;11.05;81.19;100556.19;5074697;28;20020;-81
2022/06/08 02:46:57;;;;;;;3.35;2.25;;;;;;;11.04;80.83;100551.84;5074425;28;20032;-81
2022/06/08 02:49:22;;;;;;;2.60;2.08;;;;;;;11.03;81.31;100560.56;5058062;28;20085;-81
2022/06/08 02:51:50;;;;;;;2.50;2.40;;;;;;;11.02;82.21;100564.09;5057647;28;20020;-82
2022/06/08 02:54:24;;;;;;;2.72;2.45;;;;;;;11.02;82.09;100553.63;5074296;28;20034;-81
2022/06/08 02:56:55;;;;;;;2.42;2.33;;;;;;;11.01;81.85;100562.34;5074080;28;20024;-81
2022/06/08 02:59:23;;;;;;;3.15;2.50;;;;;;;10.99;82.00;100568.47;5074344;28;20035;-81
2022/06/08 03:02:01;;;;;;;3.42;2.05;;;;;;;10.97;83.03;100562.41;5074184;28;20482;-81
2022/06/08 03:04:30;;;;;;;2.58;2.38;;;;;;;10.95;81.67;100564.19;5074359;28;20070;-80
2022/06/08 03:06:59;;;;;;;2.03;1.90;;;;;;;10.95;82.63;100564.19;5057403;28;20024;-81
2022/06/08 03:09:25;;;;;;;2.20;2.10;;;;;;;10.94;81.81;100562.47;5091007;28;20581;-80
2022/06/08 03:11:57;;;;;;;2.45;2.20;;;;;;;10.92;81.82;100561.66;5074016;28;20115;-81
2022/06/08 03:14:23;;;;;;;2.13;2.03;;;;;;;10.91;82.08;100562.53;5074028;28;20028;-81
2022/06/08 03:16:59;;;;;;;2.30;2.20;;;;;;;10.90;81.33;100559.97;5073778;28;20078;-81
2022/06/08 03:19:26;;;;;;;2.10;2.00;;;;;;;10.88;82.32;100562.59;5057339;28;20032;-81
2022/06/08 03:21:51;;;;;;;2.20;2.00;;;;;;;10.89;82.33;100568.69;5057338;28;20020;-81
2022/06/08 03:24:17;;;;;;;2.17;2.08;;;;;;;10.89;82.45;100559.06;5090916;28;20031;-80
2022/06/08 03:26:47;;;;;;;2.42;2.20;;;;;;;10.88;82.71;100562.59;5073985;28;20058;-80
2022/06/08 03:29:13;;;;;;;2.50;2.30;;;;;;;10.88;82.78;100567.84;5062775;28;20065;-80
2022/06/08 03:31:38;;;;;;;2.40;2.05;;;;;;;10.90;83.16;100557.34;5080689;28;20029;-80
2022/06/08 03:34:04;;;;;;;2.83;2.45;;;;;;;10.89;83.24;100553.84;5080744;28;20020;-80
2022/06/08 03:36:30;;;;;;;2.72;2.53;;;;;;;10.89;82.35;100558.22;5080716;28;20119;-80
2022/06/08 03:38:55;;;;;;;4.97;2.45;;;;;;;10.87;82.73;100550.41;5080574;28;20506;-80
2022/06/08 03:41:20;;;;;;;2.60;2.40;;;;;;;10.87;83.04;100553.03;5063898;28;20082;-80
2022/06/08 03:43:46;;;;;;;2.72;2.53;;;;;;;10.86;83.21;100543.47;5063977;28;20088;-80
2022/06/08 03:46:11;;;;;;;2.95;2.33;;;;;;;10.87;82.15;100544.34;5097883;28;20027;-80
2022/06/08 03:48:38;;;;;;;2.42;2.22;;;;;;;10.85;81.67;100551.34;5063949;28;20036;-80
2022/06/08 03:51:05;;;;;;;2.28;2.08;;;;;;;10.85;82.01;100546.13;5063971;28;20024;-80
2022/06/08 03:53:35;;;;;;;2.70;2.50;;;;;;;10.82;81.52;100547.03;5080379;28;20482;-80
2022/06/08 03:56:03;;;;;;;3.05;2.40;;;;;;;10.83;81.91;100548.75;5097550;28;20024;-80
2022/06/08 03:58:28;;;;;;;2.47;2.30;;;;;;;10.85;83.03;100557.41;5063621;28;20077;-80
2022/06/08 04:00:54;;;;;;;2.67;2.28;;;;;;;10.88;82.83;100553.88;5063777;28;20024;-80
2022/06/08 04:03:19;;;;;;;2.42;2.30;;;;;;;10.92;83.45;100559.03;5063927;28;20042;-80
2022/06/08 04:05:46;;;;;;;2.50;2.30;;;;;;;10.96;83.14;100565.94;5080479;28;20542;-80
2022/06/08 04:08:11;;;;;;;2.60;2.35;;;;;;;11.00;83.21;100556.25;5080049;28;20688;-80
2022/06/08 04:10:37;;;;;;;4.38;2.90;;;;;;;11.05;83.56;100564.00;5063879;28;20028;-80
2022/06/08 04:13:02;;;;;;;2.85;2.65;;;;;;;11.07;83.39;100562.22;5063560;28;20115;-80
2022/06/08 04:15:43;;;;;;;2.67;2.20;;;;;;;11.10;83.04;100564.78;5080472;28;20040;-80
2022/06/08 04:18:15;;;;;;;3.10;2.90;;;;;;;11.14;83.36;100574.28;5080088;28;20081;-80
2022/06/08 04:20:42;;;;;;;3.45;3.25;;;;;;;11.18;84.08;100565.50;5080680;28;20028;-80
2022/06/08 04:23:08;;;;;;;3.92;3.40;;;;;;;11.24;83.94;100560.13;5080474;28;20031;-80
2022/06/08 04:25:34;;;;;;;3.60;3.25;;;;;;;11.29;84.28;100550.44;5080419;28;20031;-80
2022/06/08 04:28:00;;;;;;;4.30;4.00;;;;;;;11.35;84.39;100557.28;5080650;28;20054;-78
2022/06/08 04:30:26;;;;;;;3.50;3.30;;;;;;;11.41;83.99;100566.75;5063732;28;20029;-79
2022/06/08 04:32:52;;;;;;;3.63;3.38;;;;;;;11.47;84.37;100566.63;5080297;28;20103;-79
2022/06/08 04:35:18;;;;;;;3.55;3.35;;;;;;;11.52;84.60;100567.38;5080743;28;20059;-79
2022/06/08 04:37:44;;;;;;;4.40;4.10;;;;;;;11.56;84.53;100566.41;5097150;28;20085;-79
2022/06/08 04:40:12;;;;;;;5.53;5.07;;;;;;;11.59;84.25;100578.53;5060503;28;20409;-79
2022/06/08 04:42:38;;;;;;;5.13;4.72;;;;;;;11.61;84.33;100579.38;5077579;28;20077;-79
2022/06/08 04:45:04;;;;;;;5.85;5.45;;;;;;;11.64;84.18;100580.19;5076856;28;20531;-79
2022/06/08 04:47:30;;;;;;;6.90;6.32;;;;;;;11.67;83.65;100569.66;5077457;28;20039;-78
2022/06/08 04:49:55;;;;;;;6.70;5.90;;;;;;;11.71;84.20;100580.03;5060386;28;20019;-79
2022/06/08 04:52:21;;;;;;;6.03;5.53;;;;;;;11.73;84.53;100579.09;5060422;28;20047;-79
2022/06/08 04:54:47;;;;;;;5.82;5.35;;;;;;;11.77;84.25;100578.16;5060426;28;20081;-79
2022/06/08 04:57:13;;;;;;;5.47;4.97;;;;;;;11.83;84.43;100579.75;5060301;28;20497;-78
2022/06/08 04:59:39;;;;;;;6.55;6.07;;;;;;;11.90;84.46;100575.22;5060589;28;20024;-78
2022/06/08 05:02:04;;;;;;;7.05;6.55;;;;;;;11.96;83.85;100572.53;5077287;28;20028;-78
2022/06/08 05:04:30;;;;;;;6.88;6.43;;;;;;;12.02;84.06;100569.75;5077468;28;20103;-79
2022/06/08 05:06:56;;;;;;;8.45;7.55;;;;;;;12.06;83.87;100570.53;5060270;28;20024;-78
2022/06/08 05:09:21;;;;;;;9.27;7.60;;;;;;;12.08;84.13;100569.59;5060138;28;20055;-79
2022/06/08 05:11:46;;;;;;;8.32;7.53;;;;;;;12.13;83.40;100577.34;5060210;28;20118;-79
2022/06/08 05:14:13;;;;;;;8.38;7.68;;;;;;;12.16;83.25;100572.91;5059921;28;20031;-78
2022/06/08 05:16:38;;;;;;;8.43;7.68;;;;;;;12.21;84.11;100574.53;5060109;28;20503;-79
2022/06/08 05:19:04;;;;;;;8.52;7.72;;;;;;;12.25;83.91;100574.41;5059724;28;20027;-78
2022/06/08 05:21:29;;;;;;;7.85;7.20;;;;;;;12.30;83.63;100569.91;5057151;28;20024;-78
2022/06/08 05:23:55;;;;;;;8.20;7.47;;;;;;;12.38;83.41;100568.84;5060976;28;20027;-78
2022/06/08 05:26:20;;;;;;;7.97;7.30;;;;;;;12.43;83.60;100572.22;5060207;28;20019;-79
2022/06/08 05:28:45;;;;;;;7.57;6.80;;;;;;;12.49;83.39;100569.47;5059675;28;20028;-78
2022/06/08 05:31:11;;;;;;;7.85;7.05;;;;;;;12.54;83.22;100574.56;5060642;28;20032;-79
2022/06/08 05:33:37;;;;;;;7.97;7.05;;;;;;;12.57;83.30;100583.22;5075864;28;20031;-78
2022/06/08 05:36:03;;;;;;;7.43;6.82;;;;;;;12.60;83.89;100572.66;5060041;28;20054;-78
2022/06/08 05:38:28;;;;;;;7.43;6.72;;;;;;;12.64;83.72;100582.16;5076943;28;20032;-78
2022/06/08 05:40:54;;;;;;;6.78;6.28;;;;;;;12.67;83.71;100578.59;5076502;28;20031;-78
2022/06/08 05:43:20;;;;;;;7.93;7.07;;;;;;;12.67;83.74;100579.44;5059811;28;20098;-78
2022/06/08 05:45:46;;;;;;;7.35;6.65;;;;;;;12.70;83.98;100568.00;5059857;28;20039;-78
2022/06/08 05:48:12;;;;;;;7.20;6.50;;;;;;;12.73;83.76;100569.69;5076570;28;20107;-78
2022/06/08 05:50:38;;;;;;;7.88;6.75;;;;;;;12.75;84.23;100576.63;5076234;28;20354;-79
2022/06/08 05:53:04;;;;;;;7.13;6.53;;;;;;;12.80;84.04;100579.09;5059919;28;20031;-78
2022/06/08 05:55:30;;;;;;;7.50;6.78;;;;;;;12.83;84.60;100573.81;5094124;28;20032;-80
2022/06/08 05:57:56;;;;;;;6.28;5.88;;;;;;;12.87;84.21;100570.19;5076652;28;20370;-78
2022/06/08 06:00:27;;;;;;;6.78;6.18;;;;;;;12.92;83.91;100570.06;5060611;28;20028;-78
2022/06/08 06:02:54;;;;;;;6.90;6.30;;;;;;;12.97;83.76;100565.53;5060704;28;20451;-78
2022/06/08 06:05:23;;;;;;;7.78;6.82;;;;;;;13.04;84.08;100568.84;5077463;28;20051;-78
2022/06/08 06:07:49;;;;;;;7.90;6.72;;;;;;;13.08;83.82;100566.09;5095370;28;20024;-78
2022/06/08 06:10:15;;;;;;;7.53;6.60;;;;;;;13.13;82.91;100571.19;5060317;28;20038;-79
2022/06/08 06:12:41;;;;;;;7.80;6.95;;;;;;;13.17;82.82;100567.56;5076801;28;20492;-78
2022/06/08 06:15:07;;;;;;;7.18;6.68;;;;;;;13.19;82.66;100560.53;5060865;28;20024;-78
2022/06/08 06:17:33;;;;;;;7.53;6.82;;;;;;;13.19;82.34;100557.91;5093870;28;20385;-78
2022/06/08 06:19:58;;;;;;;7.18;6.65;;;;;;;13.19;82.14;100550.91;5059702;28;20020;-80
2022/06/08 06:22:24;;;;;;;6.75;6.35;;;;;;;13.19;82.33;100550.03;5076119;28;20024;-82
2022/06/08 06:24:49;;;;;;;6.88;6.30;;;;;;;13.17;82.22;100551.84;5059259;28;20039;-79
2022/06/08 06:27:15;;;;;;;6.50;6.00;;;;;;;13.15;82.62;100558.91;5091817;28;20034;-79
2022/06/08 06:29:40;;;;;;;7.30;6.45;;;;;;;13.12;83.04;100557.22;5058784;28;20469;-79
2022/06/08 06:32:10;;;;;;;6.53;6.03;;;;;;;13.09;83.24;100559.94;5092257;28;20024;-80
2022/06/08 06:34:37;;;;;;;7.53;6.82;;;;;;;13.05;83.47;100558.31;5076024;28;20653;-79
2022/06/08 06:37:02;;;;;;;7.40;6.85;;;;;;;13.02;83.58;100563.66;5091810;28;20028;-79
2022/06/08 06:39:27;;;;;;;6.25;5.85;;;;;;;12.99;84.18;100564.59;5075630;28;20034;-80
2022/06/08 06:41:54;;;;;;;7.70;7.07;;;;;;;12.97;84.66;100561.16;5075143;28;20098;-80
2022/06/08 06:44:19;;;;;;;8.45;6.70;;;;;;;12.95;84.73;100557.72;5091896;28;20032;-79
2022/06/08 06:46:45;;;;;;;6.80;6.30;;;;;;;12.95;85.16;100551.59;5074875;28;20504;-81
2022/06/08 06:49:11;;;;;;;7.28;6.60;;;;;;;12.95;85.41;100557.72;5058682;28;20355;-82
2022/06/08 06:51:38;;;;;;;6.65;6.15;;;;;;;12.95;85.23;100567.34;5075896;28;20105;-82
2022/06/08 06:54:05;;;;;;;6.93;6.43;;;;;;;12.96;85.96;100575.16;5075161;28;20443;-82
2022/06/08 06:56:32;;;;;;;6.78;6.10;;;;;;;12.98;85.66;100578.59;5058527;28;20023;-81
2022/06/08 06:58:58;;;;;;;7.05;6.45;;;;;;;12.99;85.49;100577.72;5075295;28;20028;-81
2022/06/08 07:01:24;;;;;;;6.22;5.78;;;;;;;13.03;85.02;100578.47;5075303;28;20679;-80
2022/06/08 07:03:49;;;;;;;6.15;5.72;;;;;;;13.07;85.49;100577.47;5074781;28;20058;-81
2022/06/08 07:06:15;;;;;;;9.07;7.38;;;;;;;13.12;84.91;100585.22;5058426;28;20028;-81
2022/06/08 07:08:40;;;;;;;6.53;6.03;;;;;;;13.16;84.67;100594.72;5059114;28;20063;-81
2022/06/08 07:13:50;;;;;;;6.55;5.95;;;;;;;13.23;84.69;100583.16;5078180;28;20026;-81
2022/06/08 07:16:16;;;;;;;6.32;5.93;;;;;;;13.26;83.50;100595.31;5058321;28;20110;-83
2022/06/08 07:18:41;;;;;;;6.55;5.85;;;;;;;13.26;83.06;100590.91;5058095;28;20114;-82
2022/06/08 07:21:07;;;;;;;6.53;6.03;;;;;;;13.29;82.93;100582.97;5058491;28;20113;-83
2022/06/08 07:23:33;;;;;;;5.93;5.53;;;;;;;13.34;83.19;100585.47;5058440;28;20445;-83
2022/06/08 07:25:58;;;;;;;7.00;5.90;;;;;;;13.38;83.44;100586.28;5075023;28;20032;-83
2022/06/08 07:28:24;;;;;;;6.22;5.82;;;;;;;13.41;83.30;100587.03;5057221;28;20493;-83
2022/06/08 07:30:49;;;;;;;5.78;5.38;;;;;;;13.46;83.33;100581.66;5057526;28;20019;-83
2022/06/08 07:33:15;;;;;;;5.95;5.45;;;;;;;13.49;82.88;100578.94;5057340;28;20027;-83
2022/06/08 07:35:40;;;;;;;5.35;4.95;;;;;;;13.53;83.10;100577.94;5057416;28;20430;-82
2022/06/08 07:38:05;;;;;;;6.10;5.53;;;;;;;13.60;82.88;100571.56;5056773;28;20028;-86
2022/06/08 07:40:31;;;;;;;5.43;5.03;;;;;;;13.69;82.33;100571.31;5058576;28;20035;-85
2022/06/08 07:42:57;;;;;;;5.80;5.20;;;;;;;13.75;82.17;100569.41;5057320;28;20020;-83
2022/06/08 07:45:22;;;;;;;5.78;5.20;;;;;;;13.77;81.27;100570.19;5056853;28;20027;-83
2022/06/08 07:50:32;;;;;;;7.22;6.20;;;;;;;13.87;81.67;100563.75;5076786;28;20499;-83
2022/06/08 07:52:57;;;;;;;5.72;4.88;;;;;;;13.90;81.01;100568.06;5057183;28;20020;-83
2022/06/08 07:55:23;;;;;;;5.72;5.07;;;;;;;13.90;80.55;100563.66;5057175;28;20028;-83
2022/06/08 07:57:49;;;;;;;6.32;5.38;;;;;;;13.92;80.76;100561.84;5056912;28;20028;-83
2022/06/08 08:00:17;;;;;;;5.00;4.70;;;;;;;13.92;80.18;100551.34;5057158;28;20048;-85
2022/06/08 08:02:42;;;;;;;6.97;5.32;;;;;;;13.98;81.11;100545.03;5071677;28;20028;-83
2022/06/08 08:05:09;;;;;;;5.45;4.95;;;;;;;14.07;80.89;100543.84;5068790;28;20035;-84
2022/06/08 08:07:36;;;;;;;5.18;4.88;;;;;;;14.17;80.52;100540.03;5039542;28;20029;-83
2022/06/08 08:10:07;;;;;;;5.72;5.20;;;;;;;14.31;80.56;100536.94;5074275;28;20485;-83
2022/06/08 08:12:32;;;;;;;5.28;4.78;;;;;;;14.32;79.58;100523.72;5074323;28;20081;-84
2022/06/08 08:14:58;;;;;;;5.90;5.50;;;;;;;14.36;79.99;100525.34;5060056;28;20036;-83
2022/06/08 08:17:23;;;;;;;7.18;5.63;;;;;;;14.41;80.60;100526.94;5061562;28;20056;-83
2022/06/08 08:19:48;;;;;;;6.03;5.35;;;;;;;14.46;80.81;100525.03;5060981;28;20024;-83
2022/06/08 08:22:15;;;;;;;6.32;5.70;;;;;;;14.49;80.83;100520.53;5078118;28;20062;-83
2022/06/08 08:24:41;;;;;;;6.00;5.60;;;;;;;14.52;80.85;100516.94;5060523;28;20032;-82
2022/06/08 08:27:06;;;;;;;5.75;5.25;;;;;;;14.52;81.09;100523.03;5076944;28;20065;-83
2022/06/08 08:29:32;;;;;;;7.75;6.35;;;;;;;14.50;80.26;100524.84;5060426;28;20028;-84
2022/06/08 08:31:57;;;;;;;8.05;6.80;;;;;;;14.46;80.28;100514.50;5060630;28;20039;-83
2022/06/08 08:34:23;;;;;;;6.30;5.80;;;;;;;14.43;80.52;100509.38;5077640;28;20024;-83
2022/06/08 08:36:48;;;;;;;6.20;5.78;;;;;;;14.46;81.09;100504.00;5076883;28;20062;-83
2022/06/08 08:39:15;;;;;;;7.93;6.88;;;;;;;14.45;81.50;100497.91;5060356;28;20165;-83
2022/06/08 08:44:39;;;;;;;7.80;7.10;;;;;;;14.47;80.18;100495.22;5059919;28;20421;-83
2022/06/08 08:47:20;;;;;;;7.50;6.78;;;;;;;14.51;81.17;100486.31;5039777;28;20127;-83
2022/06/08 08:49:53;;;;;;;6.82;6.30;;;;;;;14.56;81.51;100484.38;5074760;28;20033;-83
2022/06/08 08:52:39;;;;;;;6.97;6.43;;;;;;;14.62;81.73;100478.88;5039919;28;20402;-85
2022/06/08 08:55:17;;;;;;;7.22;6.72;;;;;;;14.68;81.54;100462.06;5056944;28;20036;-83
2022/06/08 08:58:04;;;;;;;7.80;7.03;;;;;;;14.76;81.13;100465.25;5040381;28;20401;-86
2022/06/08 09:00:43;;;;;;;7.85;7.07;;;;;;;14.82;80.83;100459.78;5039981;28;20207;-83
2022/06/08 09:03:34;;;;;;;10.07;8.57;;;;;;;14.88;80.17;100449.00;5040066;28;20456;-83
2022/06/08 09:06:07;;;;;;;10.75;9.70;;;;;;;14.97;79.17;100444.31;5039897;28;20509;-83
2022/06/08 09:08:32;;;;;;;10.32;9.13;;;;;;;15.03;78.80;100442.31;5039452;28;20028;-83
2022/06/08 09:10:59;;;;;;;10.98;9.57;;;;;;;15.09;78.39;100440.38;5039926;28;20028;-83
2022/06/08 09:13:31;;;;;;;8.77;7.93;;;;;;;15.15;79.19;100440.97;5039811;28;20031;-83
2022/06/08 09:15:59;;;;;;;9.40;8.27;;;;;;;15.26;80.03;100443.19;5039912;28;20032;-84
2022/06/08 09:18:39;;;;;;;8.30;7.53;;;;;;;15.35;78.83;100437.56;5039590;28;20024;-83
2022/06/08 09:21:26;;;;;;;8.40;7.63;;;;;;;15.45;79.25;100437.19;5039740;28;20039;-83
2022/06/08 09:23:54;;;;;;;10.25;9.35;;;;;;;15.54;78.71;100421.00;5056105;28;20028;-85
2022/06/08 09:26:23;;;;;;;9.93;9.02;;;;;;;15.58;77.07;100419.97;5038836;28;20075;-85
2022/06/08 09:29:11;;;;;;;10.32;8.48;;;;;;;15.65;77.21;100417.94;5060687;28;20391;-83
2022/06/08 09:31:38;;;;;;;9.65;8.63;;;;;;;15.76;78.38;100417.47;5094729;28;20473;-85
2022/06/08 09:34:22;;;;;;;9.20;8.40;;;;;;;15.86;77.72;100414.44;5076078;28;20028;-83
2022/06/08 09:37:03;;;;;;;9.13;8.23;;;;;;;15.93;77.86;100412.41;5075915;28;20481;-83
2022/06/08 09:39:28;;;;;;;10.30;9.30;;;;;;;16.01;78.07;100414.72;5076039;28;20032;-83
2022/06/08 09:41:54;;;;;;;9.38;8.60;;;;;;;16.10;77.65;100416.06;5059411;28;20031;-81
2022/06/08 09:44:23;;;;;;;9.10;8.40;;;;;;;16.20;76.91;100420.88;5076090;28;20024;-82
2022/06/08 09:52:48;;;;;;;9.15;8.25;;;;;;;16.55;76.33;100421.09;5079099;28;20088;-82
2022/06/08 09:55:32;;;;;;;10.52;9.52;;;;;;;16.63;74.24;100415.44;5076234;28;20024;-82
2022/06/08 09:58:05;;;;;;;9.02;8.43;;;;;;;16.68;73.36;100413.44;5075963;28;20024;-82
2022/06/08 10:00:43;;;;;;;11.77;9.55;;;;;;;16.76;73.81;100409.63;5093094;28;20024;-82
2022/06/08 10:03:21;;;;;;;9.40;8.68;;;;;;;16.79;74.26;100412.13;5092893;28;20031;-82
2022/06/08 10:06:06;;;;;;;9.32;8.43;;;;;;;16.84;74.51;100408.31;5075570;28;20024;-82
2022/06/08 10:08:58;;;;;;;10.73;9.70;;;;;;;16.90;73.60;100407.22;5075223;28;20097;-82
2022/06/08 10:11:43;;;;;;;10.60;9.27;;;;;;;16.96;72.64;100399.03;5075299;28;20115;-82
2022/06/08 10:14:44;;;;;;;9.32;8.63;;;;;;;17.13;73.99;100405.28;5056265;28;20024;-82
2022/06/08 10:17:23;;;;;;;10.85;9.88;;;;;;;17.28;73.74;100395.75;5036438;28;20363;-83
2022/06/08 10:20:22;;;;;;;10.05;9.23;;;;;;;17.42;72.86;100393.28;5074473;28;20028;-82
2022/06/08 10:22:51;;;;;;;10.68;9.40;;;;;;;17.50;71.52;100395.53;5058141;28;20027;-82
2022/06/08 10:25:23;;;;;;;11.45;10.45;;;;;;;17.50;70.77;100387.63;5074269;28;20115;-83
2022/06/08 10:27:53;;;;;;;9.98;9.18;;;;;;;17.50;71.99;100385.81;5057664;28;20063;-85
2022/06/08 10:30:24;;;;;;;10.02;9.13;;;;;;;17.52;71.25;100385.75;5057641;28;20038;-82
2022/06/08 10:32:57;;;;;;;9.80;8.90;;;;;;;17.54;71.17;100383.91;5058286;28;20077;-83
2022/06/08 10:35:32;;;;;;;8.75;7.95;;;;;;;17.56;70.39;100382.00;5058299;28;20094;-82
2022/06/08 10:37:58;;;;;;;9.45;8.63;;;;;;;17.63;70.50;100388.72;5073796;28;20119;-82
2022/06/08 10:40:36;;;;;;;10.93;9.85;;;;;;;17.68;70.09;100386.72;5074741;28;20081;-82
2022/06/08 10:43:03;;;;;;;8.88;8.18;;;;;;;17.80;70.17;100381.72;5058744;28;20024;-83
2022/06/08 10:45:36;;;;;;;10.55;9.65;;;;;;;17.88;70.15;100382.19;5074956;28;20427;-83
2022/06/08 10:48:27;;;;;;;13.57;12.27;;;;;;;17.92;66.26;100378.47;5058080;28;20362;-82
2022/06/08 10:51:11;;;;;;;12.02;10.93;;;;;;;17.93;67.46;100372.25;5058018;28;20023;-83
2022/06/08 10:56:24;;;;;;;10.13;9.35;;;;;;;18.12;69.51;100381.84;5077462;28;20540;-83
2022/06/08 10:59:03;;;;;;;11.40;10.50;;;;;;;18.24;68.02;100378.56;5074249;28;20095;-83
2022/06/08 11:01:32;;;;;;;10.85;9.98;;;;;;;18.35;66.50;100377.97;5091281;28;20405;-82
2022/06/08 11:03:59;;;;;;;9.32;8.57;;;;;;;18.45;66.84;100375.69;5074385;28;20035;-82
2022/06/08 11:06:49;;;;;;;9.50;8.80;;;;;;;18.55;66.11;100372.47;5057790;28;20486;-84
2022/06/08 11:09:20;;;;;;;8.90;8.20;;;;;;;18.58;65.06;100382.03;5074114;28;20061;-83
2022/06/08 11:11:50;;;;;;;5.40;5.10;;;;;;;18.56;62.41;100378.63;5076271;28;20031;-82
2022/06/08 11:14:32;;;;;;;5.90;5.40;;;;;;;18.52;60.35;100377.09;5075219;28;20124;-83
2022/06/08 11:17:04;;;;;;;5.63;5.22;;;;;;;18.45;60.38;100384.50;5057619;28;20027;-83
2022/06/08 11:19:31;;;;;;;6.57;5.82;;;;;;;18.38;60.82;100383.97;5057636;28;20473;-82
2022/06/08 11:22:00;;;;;;;6.72;6.22;;;;;;;18.40;61.29;100378.59;5057722;28;20138;-83
2022/06/08 11:24:27;;;;;;;8.45;7.82;;;;;;;18.50;60.88;100381.59;5057446;28;20031;-83
2022/06/08 11:27:22;;;;;;;7.55;7.00;;;;;;;18.64;59.76;100380.81;5057291;28;20035;-84
2022/06/08 11:29:49;;;;;;;7.23;6.70;;;;;;;18.77;58.85;100373.94;5069382;28;20131;-83
2022/06/08 11:32:33;;;;;;;6.65;6.15;;;;;;;18.80;60.88;100372.91;5057532;28;20028;-86
2022/06/08 11:35:08;;;;;;;7.82;7.38;;;;;;;18.84;59.41;100374.44;5074357;28;20144;-82
2022/06/08 11:37:52;;;;;;;7.20;6.60;;;;;;;18.85;59.18;100378.81;5073993;28;20027;-84
2022/06/08 11:40:27;;;;;;;6.53;6.13;;;;;;;18.88;61.71;100378.66;5065288;28;20028;-82
2022/06/08 11:43:00;;;;;;;7.22;6.65;;;;;;;18.97;60.17;100372.84;5060742;28;20017;-83
2022/06/08 11:45:50;;;;;;;8.32;7.63;;;;;;;18.98;58.86;100374.56;5037496;28;20052;-83
2022/06/08 11:48:22;;;;;;;8.27;7.72;;;;;;;18.94;57.79;100373.03;5037497;28;20111;-83
2022/06/08 11:50:59;;;;;;;7.93;7.32;;;;;;;19.01;59.73;100358.50;5041269;28;20029;-83
2022/06/08 11:53:24;;;;;;;6.95;6.45;;;;;;;19.20;61.11;100357.47;5041425;28;20051;-82
2022/06/08 11:56:05;;;;;;;8.25;7.63;;;;;;;19.35;59.61;100359.22;5075070;28;20115;-83
2022/06/08 11:58:31;;;;;;;8.10;7.60;;;;;;;19.48;59.08;100363.78;5057710;28;20024;-83